<?xml version="1.0" encoding="UTF-8" standalone="no" ?>
<gpx xmlns="http://www.topografix.com/GPX/1/1" xmlns:xsi="http://www.w3.org/2001/XMLSchema-instance" xsi:schemaLocation="http://www.topografix.com/GPX/1/1 http://www.topografix.com/GPX/1/1/gpx.xsd" version="1.1" creator="VisuGPX - https://www.visugpx.com">
  <metadata>
    <name>16-06-2013 Fort de la Revère</name>
    <desc><![CDATA[Niveau accessible à tout le monde]]></desc>
  </metadata>
  <trk>
    <name><![CDATA[Track 16 juin 2013 14:53]]></name>
    <trkseg>
      <trkpt lat="43.73861" lon="7.36511">
        <ele>703</ele>
        <time>2013-06-16T12:53:35Z</time>
      </trkpt>
      <trkpt lat="43.73861" lon="7.36511">
        <ele>703</ele>
        <time>2013-06-16T12:53:50Z</time>
      </trkpt>
      <trkpt lat="43.73857" lon="7.36536">
        <ele>701</ele>
        <time>2013-06-16T12:54:09Z</time>
      </trkpt>
      <trkpt lat="43.73847" lon="7.36557">
        <ele>698</ele>
        <time>2013-06-16T12:54:28Z</time>
      </trkpt>
      <trkpt lat="43.73829" lon="7.36565">
        <ele>700</ele>
        <time>2013-06-16T12:54:45Z</time>
      </trkpt>
      <trkpt lat="43.73846" lon="7.36563">
        <ele>699</ele>
        <time>2013-06-16T12:55:56Z</time>
      </trkpt>
      <trkpt lat="43.73851" lon="7.36591">
        <ele>695</ele>
        <time>2013-06-16T12:56:20Z</time>
      </trkpt>
      <trkpt lat="43.73844" lon="7.36614">
        <ele>699</ele>
        <time>2013-06-16T12:56:30Z</time>
      </trkpt>
      <trkpt lat="43.73845" lon="7.36641">
        <ele>701</ele>
        <time>2013-06-16T12:56:43Z</time>
      </trkpt>
      <trkpt lat="43.73855" lon="7.36663">
        <ele>704</ele>
        <time>2013-06-16T12:56:58Z</time>
      </trkpt>
      <trkpt lat="43.73854" lon="7.3669">
        <ele>704</ele>
        <time>2013-06-16T12:57:20Z</time>
      </trkpt>
      <trkpt lat="43.73845" lon="7.36714">
        <ele>698</ele>
        <time>2013-06-16T12:57:41Z</time>
      </trkpt>
      <trkpt lat="43.73835" lon="7.36736">
        <ele>695</ele>
        <time>2013-06-16T12:57:54Z</time>
      </trkpt>
      <trkpt lat="43.7383" lon="7.3676">
        <ele>690</ele>
        <time>2013-06-16T12:58:07Z</time>
      </trkpt>
      <trkpt lat="43.73824" lon="7.36786">
        <ele>690</ele>
        <time>2013-06-16T12:58:21Z</time>
      </trkpt>
      <trkpt lat="43.73822" lon="7.36811">
        <ele>690</ele>
        <time>2013-06-16T12:58:35Z</time>
      </trkpt>
      <trkpt lat="43.73822" lon="7.36837">
        <ele>687</ele>
        <time>2013-06-16T12:58:52Z</time>
      </trkpt>
      <trkpt lat="43.73832" lon="7.36857">
        <ele>683</ele>
        <time>2013-06-16T12:59:07Z</time>
      </trkpt>
      <trkpt lat="43.73844" lon="7.36877">
        <ele>683</ele>
        <time>2013-06-16T12:59:21Z</time>
      </trkpt>
      <trkpt lat="43.73829" lon="7.36867">
        <ele>679</ele>
        <time>2013-06-16T12:59:45Z</time>
      </trkpt>
      <trkpt lat="43.73814" lon="7.36851">
        <ele>677</ele>
        <time>2013-06-16T12:59:59Z</time>
      </trkpt>
      <trkpt lat="43.73799" lon="7.36856">
        <ele>671</ele>
        <time>2013-06-16T13:00:49Z</time>
      </trkpt>
      <trkpt lat="43.73782" lon="7.36846">
        <ele>667</ele>
        <time>2013-06-16T13:01:16Z</time>
      </trkpt>
      <trkpt lat="43.73775" lon="7.36822">
        <ele>667</ele>
        <time>2013-06-16T13:01:39Z</time>
      </trkpt>
      <trkpt lat="43.73757" lon="7.36836">
        <ele>676</ele>
        <time>2013-06-16T13:01:58Z</time>
      </trkpt>
      <trkpt lat="43.7375" lon="7.36858">
        <ele>679</ele>
        <time>2013-06-16T13:02:09Z</time>
      </trkpt>
      <trkpt lat="43.73742" lon="7.36882">
        <ele>674</ele>
        <time>2013-06-16T13:02:23Z</time>
      </trkpt>
      <trkpt lat="43.73733" lon="7.36905">
        <ele>667</ele>
        <time>2013-06-16T13:02:44Z</time>
      </trkpt>
      <trkpt lat="43.73722" lon="7.36929">
        <ele>664</ele>
        <time>2013-06-16T13:03:00Z</time>
      </trkpt>
      <trkpt lat="43.73713" lon="7.36952">
        <ele>661</ele>
        <time>2013-06-16T13:03:16Z</time>
      </trkpt>
      <trkpt lat="43.73709" lon="7.36976">
        <ele>651</ele>
        <time>2013-06-16T13:03:33Z</time>
      </trkpt>
      <trkpt lat="43.73694" lon="7.36993">
        <ele>649</ele>
        <time>2013-06-16T13:03:46Z</time>
      </trkpt>
      <trkpt lat="43.73678" lon="7.37004">
        <ele>649</ele>
        <time>2013-06-16T13:04:03Z</time>
      </trkpt>
      <trkpt lat="43.73662" lon="7.37014">
        <ele>651</ele>
        <time>2013-06-16T13:04:18Z</time>
      </trkpt>
      <trkpt lat="43.73682" lon="7.37027">
        <ele>652</ele>
        <time>2013-06-16T13:04:30Z</time>
      </trkpt>
      <trkpt lat="43.73657" lon="7.37045">
        <ele>654</ele>
        <time>2013-06-16T13:04:40Z</time>
      </trkpt>
      <trkpt lat="43.73638" lon="7.37049">
        <ele>650</ele>
        <time>2013-06-16T13:04:54Z</time>
      </trkpt>
      <trkpt lat="43.7362" lon="7.37053">
        <ele>652</ele>
        <time>2013-06-16T13:05:22Z</time>
      </trkpt>
      <trkpt lat="43.7361" lon="7.37067">
        <ele>651</ele>
        <time>2013-06-16T13:05:52Z</time>
      </trkpt>
      <trkpt lat="43.73591" lon="7.37069">
        <ele>655</ele>
        <time>2013-06-16T13:06:12Z</time>
      </trkpt>
      <trkpt lat="43.73574" lon="7.37062">
        <ele>650</ele>
        <time>2013-06-16T13:06:29Z</time>
      </trkpt>
      <trkpt lat="43.73555" lon="7.37072">
        <ele>654</ele>
        <time>2013-06-16T13:06:39Z</time>
      </trkpt>
      <trkpt lat="43.73547" lon="7.37095">
        <ele>645</ele>
        <time>2013-06-16T13:06:51Z</time>
      </trkpt>
      <trkpt lat="43.73541" lon="7.37119">
        <ele>649</ele>
        <time>2013-06-16T13:07:18Z</time>
      </trkpt>
      <trkpt lat="43.73536" lon="7.37144">
        <ele>658</ele>
        <time>2013-06-16T13:07:31Z</time>
      </trkpt>
      <trkpt lat="43.73538" lon="7.3717">
        <ele>659</ele>
        <time>2013-06-16T13:07:47Z</time>
      </trkpt>
      <trkpt lat="43.73532" lon="7.37195">
        <ele>655</ele>
        <time>2013-06-16T13:08:04Z</time>
      </trkpt>
      <trkpt lat="43.73545" lon="7.37175">
        <ele>650</ele>
        <time>2013-06-16T13:08:26Z</time>
      </trkpt>
      <trkpt lat="43.73559" lon="7.37177">
        <ele>655</ele>
        <time>2013-06-16T13:09:04Z</time>
      </trkpt>
      <trkpt lat="43.73574" lon="7.37182">
        <ele>663</ele>
        <time>2013-06-16T13:09:52Z</time>
      </trkpt>
      <trkpt lat="43.73587" lon="7.37193">
        <ele>671</ele>
        <time>2013-06-16T13:10:34Z</time>
      </trkpt>
      <trkpt lat="43.73582" lon="7.37218">
        <ele>675</ele>
        <time>2013-06-16T13:10:51Z</time>
      </trkpt>
      <trkpt lat="43.73574" lon="7.37241">
        <ele>677</ele>
        <time>2013-06-16T13:11:04Z</time>
      </trkpt>
      <trkpt lat="43.73572" lon="7.37263">
        <ele>680</ele>
        <time>2013-06-16T13:11:17Z</time>
      </trkpt>
      <trkpt lat="43.73562" lon="7.37286">
        <ele>679</ele>
        <time>2013-06-16T13:11:29Z</time>
      </trkpt>
      <trkpt lat="43.73573" lon="7.37263">
        <ele>670</ele>
        <time>2013-06-16T13:13:25Z</time>
      </trkpt>
      <trkpt lat="43.73574" lon="7.37236">
        <ele>670</ele>
        <time>2013-06-16T13:13:40Z</time>
      </trkpt>
      <trkpt lat="43.7358" lon="7.37211">
        <ele>671</ele>
        <time>2013-06-16T13:13:54Z</time>
      </trkpt>
      <trkpt lat="43.73587" lon="7.37187">
        <ele>671</ele>
        <time>2013-06-16T13:14:13Z</time>
      </trkpt>
      <trkpt lat="43.73575" lon="7.37168">
        <ele>670</ele>
        <time>2013-06-16T13:14:31Z</time>
      </trkpt>
      <trkpt lat="43.73569" lon="7.37194">
        <ele>672</ele>
        <time>2013-06-16T13:14:49Z</time>
      </trkpt>
      <trkpt lat="43.73556" lon="7.37179">
        <ele>665</ele>
        <time>2013-06-16T13:15:29Z</time>
      </trkpt>
      <trkpt lat="43.73543" lon="7.37199">
        <ele>652</ele>
        <time>2013-06-16T13:16:25Z</time>
      </trkpt>
      <trkpt lat="43.73533" lon="7.37214">
        <ele>653</ele>
        <time>2013-06-16T13:16:38Z</time>
      </trkpt>
      <trkpt lat="43.73539" lon="7.37194">
        <ele>654</ele>
        <time>2013-06-16T13:17:41Z</time>
      </trkpt>
      <trkpt lat="43.73552" lon="7.3731">
        <ele>649</ele>
        <time>2013-06-16T13:18:30Z</time>
      </trkpt>
      <trkpt lat="43.73567" lon="7.3735">
        <ele>658</ele>
        <time>2013-06-16T13:18:45Z</time>
      </trkpt>
      <trkpt lat="43.73578" lon="7.37372">
        <ele>656</ele>
        <time>2013-06-16T13:19:02Z</time>
      </trkpt>
      <trkpt lat="43.73574" lon="7.37397">
        <ele>653</ele>
        <time>2013-06-16T13:19:15Z</time>
      </trkpt>
      <trkpt lat="43.73567" lon="7.37422">
        <ele>650</ele>
        <time>2013-06-16T13:19:35Z</time>
      </trkpt>
      <trkpt lat="43.73572" lon="7.37443">
        <ele>645</ele>
        <time>2013-06-16T13:20:05Z</time>
      </trkpt>
      <trkpt lat="43.73573" lon="7.37468">
        <ele>646</ele>
        <time>2013-06-16T13:20:16Z</time>
      </trkpt>
      <trkpt lat="43.73572" lon="7.37499">
        <ele>648</ele>
        <time>2013-06-16T13:20:46Z</time>
      </trkpt>
      <trkpt lat="43.73572" lon="7.37518">
        <ele>648</ele>
        <time>2013-06-16T13:21:14Z</time>
      </trkpt>
      <trkpt lat="43.73574" lon="7.37544">
        <ele>647</ele>
        <time>2013-06-16T13:21:29Z</time>
      </trkpt>
      <trkpt lat="43.73569" lon="7.3757">
        <ele>647</ele>
        <time>2013-06-16T13:21:55Z</time>
      </trkpt>
      <trkpt lat="43.73559" lon="7.37592">
        <ele>645</ele>
        <time>2013-06-16T13:22:12Z</time>
      </trkpt>
      <trkpt lat="43.73558" lon="7.37618">
        <ele>641</ele>
        <time>2013-06-16T13:22:26Z</time>
      </trkpt>
      <trkpt lat="43.73565" lon="7.37643">
        <ele>636</ele>
        <time>2013-06-16T13:22:46Z</time>
      </trkpt>
      <trkpt lat="43.73567" lon="7.37664">
        <ele>637</ele>
        <time>2013-06-16T13:23:11Z</time>
      </trkpt>
      <trkpt lat="43.73564" lon="7.37731">
        <ele>637</ele>
        <time>2013-06-16T13:23:22Z</time>
      </trkpt>
      <trkpt lat="43.73553" lon="7.37746">
        <ele>630</ele>
        <time>2013-06-16T13:23:32Z</time>
      </trkpt>
      <trkpt lat="43.7354" lon="7.37763">
        <ele>632</ele>
        <time>2013-06-16T13:24:00Z</time>
      </trkpt>
      <trkpt lat="43.73558" lon="7.37785">
        <ele>624</ele>
        <time>2013-06-16T13:24:56Z</time>
      </trkpt>
      <trkpt lat="43.73563" lon="7.3781">
        <ele>624</ele>
        <time>2013-06-16T13:25:08Z</time>
      </trkpt>
      <trkpt lat="43.73576" lon="7.37825">
        <ele>618</ele>
        <time>2013-06-16T13:25:38Z</time>
      </trkpt>
      <trkpt lat="43.73585" lon="7.37849">
        <ele>617</ele>
        <time>2013-06-16T13:25:49Z</time>
      </trkpt>
      <trkpt lat="43.73593" lon="7.37872">
        <ele>615</ele>
        <time>2013-06-16T13:26:04Z</time>
      </trkpt>
      <trkpt lat="43.73601" lon="7.37895">
        <ele>614</ele>
        <time>2013-06-16T13:26:18Z</time>
      </trkpt>
      <trkpt lat="43.73611" lon="7.37918">
        <ele>611</ele>
        <time>2013-06-16T13:26:32Z</time>
      </trkpt>
      <trkpt lat="43.73621" lon="7.37939">
        <ele>614</ele>
        <time>2013-06-16T13:26:42Z</time>
      </trkpt>
      <trkpt lat="43.73634" lon="7.37959">
        <ele>614</ele>
        <time>2013-06-16T13:26:56Z</time>
      </trkpt>
      <trkpt lat="43.73651" lon="7.37973">
        <ele>610</ele>
        <time>2013-06-16T13:27:13Z</time>
      </trkpt>
      <trkpt lat="43.73667" lon="7.37985">
        <ele>612</ele>
        <time>2013-06-16T13:27:24Z</time>
      </trkpt>
      <trkpt lat="43.73686" lon="7.37994">
        <ele>611</ele>
        <time>2013-06-16T13:27:40Z</time>
      </trkpt>
      <trkpt lat="43.73699" lon="7.38013">
        <ele>613</ele>
        <time>2013-06-16T13:27:55Z</time>
      </trkpt>
      <trkpt lat="43.73697" lon="7.38051">
        <ele>613</ele>
        <time>2013-06-16T13:28:10Z</time>
      </trkpt>
      <trkpt lat="43.73698" lon="7.38074">
        <ele>611</ele>
        <time>2013-06-16T13:28:23Z</time>
      </trkpt>
      <trkpt lat="43.73693" lon="7.38097">
        <ele>615</ele>
        <time>2013-06-16T13:28:42Z</time>
      </trkpt>
      <trkpt lat="43.73697" lon="7.38123">
        <ele>615</ele>
        <time>2013-06-16T13:28:57Z</time>
      </trkpt>
      <trkpt lat="43.73708" lon="7.38145">
        <ele>613</ele>
        <time>2013-06-16T13:29:14Z</time>
      </trkpt>
      <trkpt lat="43.73716" lon="7.38168">
        <ele>611</ele>
        <time>2013-06-16T13:29:29Z</time>
      </trkpt>
      <trkpt lat="43.73728" lon="7.38186">
        <ele>609</ele>
        <time>2013-06-16T13:29:42Z</time>
      </trkpt>
      <trkpt lat="43.73741" lon="7.38206">
        <ele>603</ele>
        <time>2013-06-16T13:29:59Z</time>
      </trkpt>
      <trkpt lat="43.73753" lon="7.38228">
        <ele>607</ele>
        <time>2013-06-16T13:30:12Z</time>
      </trkpt>
      <trkpt lat="43.73764" lon="7.38248">
        <ele>608</ele>
        <time>2013-06-16T13:30:22Z</time>
      </trkpt>
      <trkpt lat="43.73767" lon="7.38275">
        <ele>607</ele>
        <time>2013-06-16T13:30:36Z</time>
      </trkpt>
      <trkpt lat="43.73781" lon="7.38289">
        <ele>606</ele>
        <time>2013-06-16T13:30:54Z</time>
      </trkpt>
      <trkpt lat="43.73797" lon="7.38306">
        <ele>609</ele>
        <time>2013-06-16T13:31:10Z</time>
      </trkpt>
      <trkpt lat="43.7381" lon="7.38326">
        <ele>606</ele>
        <time>2013-06-16T13:31:26Z</time>
      </trkpt>
      <trkpt lat="43.73826" lon="7.3834">
        <ele>602</ele>
        <time>2013-06-16T13:31:40Z</time>
      </trkpt>
      <trkpt lat="43.73842" lon="7.38354">
        <ele>600</ele>
        <time>2013-06-16T13:32:19Z</time>
      </trkpt>
      <trkpt lat="43.73859" lon="7.38387">
        <ele>600</ele>
        <time>2013-06-16T13:32:35Z</time>
      </trkpt>
      <trkpt lat="43.73858" lon="7.38414">
        <ele>606</ele>
        <time>2013-06-16T13:32:49Z</time>
      </trkpt>
      <trkpt lat="43.73872" lon="7.38433">
        <ele>605</ele>
        <time>2013-06-16T13:33:02Z</time>
      </trkpt>
      <trkpt lat="43.73887" lon="7.3845">
        <ele>602</ele>
        <time>2013-06-16T13:33:16Z</time>
      </trkpt>
      <trkpt lat="43.73903" lon="7.38463">
        <ele>603</ele>
        <time>2013-06-16T13:33:30Z</time>
      </trkpt>
      <trkpt lat="43.73915" lon="7.38484">
        <ele>604</ele>
        <time>2013-06-16T13:33:45Z</time>
      </trkpt>
      <trkpt lat="43.7393" lon="7.38498">
        <ele>605</ele>
        <time>2013-06-16T13:34:01Z</time>
      </trkpt>
      <trkpt lat="43.73938" lon="7.38522">
        <ele>609</ele>
        <time>2013-06-16T13:34:20Z</time>
      </trkpt>
      <trkpt lat="43.73956" lon="7.38536">
        <ele>611</ele>
        <time>2013-06-16T13:35:41Z</time>
      </trkpt>
      <trkpt lat="43.73975" lon="7.38547">
        <ele>608</ele>
        <time>2013-06-16T13:35:56Z</time>
      </trkpt>
      <trkpt lat="43.73992" lon="7.38558">
        <ele>607</ele>
        <time>2013-06-16T13:36:12Z</time>
      </trkpt>
      <trkpt lat="43.74003" lon="7.38579">
        <ele>607</ele>
        <time>2013-06-16T13:36:28Z</time>
      </trkpt>
      <trkpt lat="43.74016" lon="7.38598">
        <ele>607</ele>
        <time>2013-06-16T13:36:47Z</time>
      </trkpt>
      <trkpt lat="43.74025" lon="7.38621">
        <ele>609</ele>
        <time>2013-06-16T13:37:02Z</time>
      </trkpt>
      <trkpt lat="43.7402" lon="7.38644">
        <ele>611</ele>
        <time>2013-06-16T13:37:18Z</time>
      </trkpt>
      <trkpt lat="43.74012" lon="7.38667">
        <ele>617</ele>
        <time>2013-06-16T13:37:31Z</time>
      </trkpt>
      <trkpt lat="43.74012" lon="7.38693">
        <ele>617</ele>
        <time>2013-06-16T13:37:41Z</time>
      </trkpt>
      <trkpt lat="43.74024" lon="7.38702">
        <ele>616</ele>
        <time>2013-06-16T13:39:02Z</time>
      </trkpt>
      <trkpt lat="43.74036" lon="7.38683">
        <ele>614</ele>
        <time>2013-06-16T13:39:18Z</time>
      </trkpt>
      <trkpt lat="43.74036" lon="7.38709">
        <ele>609</ele>
        <time>2013-06-16T13:39:34Z</time>
      </trkpt>
      <trkpt lat="43.74043" lon="7.38733">
        <ele>610</ele>
        <time>2013-06-16T13:39:52Z</time>
      </trkpt>
      <trkpt lat="43.74055" lon="7.38749">
        <ele>612</ele>
        <time>2013-06-16T13:40:03Z</time>
      </trkpt>
      <trkpt lat="43.74074" lon="7.38752">
        <ele>613</ele>
        <time>2013-06-16T13:40:16Z</time>
      </trkpt>
      <trkpt lat="43.74094" lon="7.3875">
        <ele>613</ele>
        <time>2013-06-16T13:40:30Z</time>
      </trkpt>
      <trkpt lat="43.74112" lon="7.3875">
        <ele>612</ele>
        <time>2013-06-16T13:40:44Z</time>
      </trkpt>
      <trkpt lat="43.74132" lon="7.38753">
        <ele>613</ele>
        <time>2013-06-16T13:40:59Z</time>
      </trkpt>
      <trkpt lat="43.74153" lon="7.3876">
        <ele>613</ele>
        <time>2013-06-16T13:41:13Z</time>
      </trkpt>
      <trkpt lat="43.74172" lon="7.38755">
        <ele>618</ele>
        <time>2013-06-16T13:41:39Z</time>
      </trkpt>
      <trkpt lat="43.74187" lon="7.3874">
        <ele>612</ele>
        <time>2013-06-16T13:41:55Z</time>
      </trkpt>
      <trkpt lat="43.74196" lon="7.38762">
        <ele>613</ele>
        <time>2013-06-16T13:42:06Z</time>
      </trkpt>
      <trkpt lat="43.74214" lon="7.38759">
        <ele>621</ele>
        <time>2013-06-16T13:42:46Z</time>
      </trkpt>
      <trkpt lat="43.74205" lon="7.38776">
        <ele>613</ele>
        <time>2013-06-16T13:43:21Z</time>
      </trkpt>
      <trkpt lat="43.74194" lon="7.38797">
        <ele>614</ele>
        <time>2013-06-16T13:43:37Z</time>
      </trkpt>
      <trkpt lat="43.74194" lon="7.38772">
        <ele>614</ele>
        <time>2013-06-16T13:43:56Z</time>
      </trkpt>
      <trkpt lat="43.74204" lon="7.38753">
        <ele>612</ele>
        <time>2013-06-16T13:44:10Z</time>
      </trkpt>
      <trkpt lat="43.74223" lon="7.38752">
        <ele>611</ele>
        <time>2013-06-16T13:44:23Z</time>
      </trkpt>
      <trkpt lat="43.74237" lon="7.38735">
        <ele>612</ele>
        <time>2013-06-16T13:44:44Z</time>
      </trkpt>
      <trkpt lat="43.74259" lon="7.38732">
        <ele>608</ele>
        <time>2013-06-16T13:45:49Z</time>
      </trkpt>
      <trkpt lat="43.74278" lon="7.38729">
        <ele>607</ele>
        <time>2013-06-16T13:46:05Z</time>
      </trkpt>
      <trkpt lat="43.74293" lon="7.38733">
        <ele>605</ele>
        <time>2013-06-16T13:46:21Z</time>
      </trkpt>
      <trkpt lat="43.74299" lon="7.38757">
        <ele>603</ele>
        <time>2013-06-16T13:46:35Z</time>
      </trkpt>
      <trkpt lat="43.74305" lon="7.38782">
        <ele>596</ele>
        <time>2013-06-16T13:46:53Z</time>
      </trkpt>
      <trkpt lat="43.74325" lon="7.38785">
        <ele>590</ele>
        <time>2013-06-16T13:47:51Z</time>
      </trkpt>
      <trkpt lat="43.74341" lon="7.38772">
        <ele>587</ele>
        <time>2013-06-16T13:48:07Z</time>
      </trkpt>
      <trkpt lat="43.74355" lon="7.38754">
        <ele>578</ele>
        <time>2013-06-16T13:48:23Z</time>
      </trkpt>
      <trkpt lat="43.7437" lon="7.38737">
        <ele>575</ele>
        <time>2013-06-16T13:48:41Z</time>
      </trkpt>
      <trkpt lat="43.74375" lon="7.38713">
        <ele>571</ele>
        <time>2013-06-16T13:48:55Z</time>
      </trkpt>
      <trkpt lat="43.74388" lon="7.38693">
        <ele>568</ele>
        <time>2013-06-16T13:49:09Z</time>
      </trkpt>
      <trkpt lat="43.74411" lon="7.38667">
        <ele>567</ele>
        <time>2013-06-16T13:49:23Z</time>
      </trkpt>
      <trkpt lat="43.74407" lon="7.38694">
        <ele>562</ele>
        <time>2013-06-16T13:49:36Z</time>
      </trkpt>
      <trkpt lat="43.74405" lon="7.38723">
        <ele>555</ele>
        <time>2013-06-16T13:49:53Z</time>
      </trkpt>
      <trkpt lat="43.7441" lon="7.38753">
        <ele>556</ele>
        <time>2013-06-16T13:52:06Z</time>
      </trkpt>
      <trkpt lat="43.74423" lon="7.38736">
        <ele>549</ele>
        <time>2013-06-16T13:52:37Z</time>
      </trkpt>
      <trkpt lat="43.7444" lon="7.38722">
        <ele>546</ele>
        <time>2013-06-16T13:52:52Z</time>
      </trkpt>
      <trkpt lat="43.74458" lon="7.38714">
        <ele>546</ele>
        <time>2013-06-16T13:53:09Z</time>
      </trkpt>
      <trkpt lat="43.74476" lon="7.38704">
        <ele>543</ele>
        <time>2013-06-16T13:53:28Z</time>
      </trkpt>
      <trkpt lat="43.74494" lon="7.38688">
        <ele>542</ele>
        <time>2013-06-16T13:53:42Z</time>
      </trkpt>
      <trkpt lat="43.74479" lon="7.38671">
        <ele>538</ele>
        <time>2013-06-16T13:54:00Z</time>
      </trkpt>
      <trkpt lat="43.74467" lon="7.38652">
        <ele>536</ele>
        <time>2013-06-16T13:54:18Z</time>
      </trkpt>
      <trkpt lat="43.74457" lon="7.38629">
        <ele>536</ele>
        <time>2013-06-16T13:54:35Z</time>
      </trkpt>
      <trkpt lat="43.74439" lon="7.38629">
        <ele>534</ele>
        <time>2013-06-16T13:54:52Z</time>
      </trkpt>
      <trkpt lat="43.74422" lon="7.3862">
        <ele>534</ele>
        <time>2013-06-16T13:55:07Z</time>
      </trkpt>
      <trkpt lat="43.74405" lon="7.38607">
        <ele>532</ele>
        <time>2013-06-16T13:55:25Z</time>
      </trkpt>
      <trkpt lat="43.74388" lon="7.38595">
        <ele>531</ele>
        <time>2013-06-16T13:55:41Z</time>
      </trkpt>
      <trkpt lat="43.7438" lon="7.38572">
        <ele>530</ele>
        <time>2013-06-16T13:56:02Z</time>
      </trkpt>
      <trkpt lat="43.74366" lon="7.38553">
        <ele>528</ele>
        <time>2013-06-16T13:56:22Z</time>
      </trkpt>
      <trkpt lat="43.74347" lon="7.38548">
        <ele>528</ele>
        <time>2013-06-16T13:56:37Z</time>
      </trkpt>
      <trkpt lat="43.74328" lon="7.38538">
        <ele>527</ele>
        <time>2013-06-16T13:56:54Z</time>
      </trkpt>
      <trkpt lat="43.74311" lon="7.38525">
        <ele>529</ele>
        <time>2013-06-16T13:57:06Z</time>
      </trkpt>
      <trkpt lat="43.74297" lon="7.38515">
        <ele>531</ele>
        <time>2013-06-16T13:57:54Z</time>
      </trkpt>
      <trkpt lat="43.7427" lon="7.38501">
        <ele>531</ele>
        <time>2013-06-16T13:58:08Z</time>
      </trkpt>
      <trkpt lat="43.74271" lon="7.38481">
        <ele>535</ele>
        <time>2013-06-16T13:59:00Z</time>
      </trkpt>
      <trkpt lat="43.74264" lon="7.38456">
        <ele>534</ele>
        <time>2013-06-16T13:59:10Z</time>
      </trkpt>
      <trkpt lat="43.74257" lon="7.38433">
        <ele>532</ele>
        <time>2013-06-16T13:59:24Z</time>
      </trkpt>
      <trkpt lat="43.74239" lon="7.38422">
        <ele>531</ele>
        <time>2013-06-16T13:59:40Z</time>
      </trkpt>
      <trkpt lat="43.74224" lon="7.38406">
        <ele>531</ele>
        <time>2013-06-16T13:59:53Z</time>
      </trkpt>
      <trkpt lat="43.74207" lon="7.38393">
        <ele>533</ele>
        <time>2013-06-16T14:00:12Z</time>
      </trkpt>
      <trkpt lat="43.74197" lon="7.38369">
        <ele>535</ele>
        <time>2013-06-16T14:00:22Z</time>
      </trkpt>
      <trkpt lat="43.74187" lon="7.38345">
        <ele>534</ele>
        <time>2013-06-16T14:00:32Z</time>
      </trkpt>
      <trkpt lat="43.74173" lon="7.38327">
        <ele>533</ele>
        <time>2013-06-16T14:00:48Z</time>
      </trkpt>
      <trkpt lat="43.74156" lon="7.38314">
        <ele>532</ele>
        <time>2013-06-16T14:01:02Z</time>
      </trkpt>
      <trkpt lat="43.74137" lon="7.38309">
        <ele>532</ele>
        <time>2013-06-16T14:01:18Z</time>
      </trkpt>
      <trkpt lat="43.74122" lon="7.38291">
        <ele>532</ele>
        <time>2013-06-16T14:01:32Z</time>
      </trkpt>
      <trkpt lat="43.74105" lon="7.38284">
        <ele>530</ele>
        <time>2013-06-16T14:01:46Z</time>
      </trkpt>
      <trkpt lat="43.74087" lon="7.38273">
        <ele>532</ele>
        <time>2013-06-16T14:02:04Z</time>
      </trkpt>
      <trkpt lat="43.74068" lon="7.3827">
        <ele>532</ele>
        <time>2013-06-16T14:02:15Z</time>
      </trkpt>
      <trkpt lat="43.74051" lon="7.38257">
        <ele>533</ele>
        <time>2013-06-16T14:02:34Z</time>
      </trkpt>
      <trkpt lat="43.74038" lon="7.38236">
        <ele>534</ele>
        <time>2013-06-16T14:02:51Z</time>
      </trkpt>
      <trkpt lat="43.74023" lon="7.38216">
        <ele>536</ele>
        <time>2013-06-16T14:03:02Z</time>
      </trkpt>
      <trkpt lat="43.7401" lon="7.382">
        <ele>534</ele>
        <time>2013-06-16T14:03:16Z</time>
      </trkpt>
      <trkpt lat="43.74004" lon="7.38172">
        <ele>538</ele>
        <time>2013-06-16T14:03:30Z</time>
      </trkpt>
      <trkpt lat="43.73988" lon="7.38164">
        <ele>536</ele>
        <time>2013-06-16T14:03:49Z</time>
      </trkpt>
      <trkpt lat="43.73974" lon="7.38149">
        <ele>537</ele>
        <time>2013-06-16T14:04:04Z</time>
      </trkpt>
      <trkpt lat="43.73961" lon="7.38129">
        <ele>542</ele>
        <time>2013-06-16T14:04:17Z</time>
      </trkpt>
      <trkpt lat="43.73962" lon="7.38102">
        <ele>542</ele>
        <time>2013-06-16T14:04:29Z</time>
      </trkpt>
      <trkpt lat="43.73958" lon="7.38077">
        <ele>543</ele>
        <time>2013-06-16T14:04:44Z</time>
      </trkpt>
      <trkpt lat="43.73945" lon="7.38056">
        <ele>541</ele>
        <time>2013-06-16T14:04:59Z</time>
      </trkpt>
      <trkpt lat="43.73926" lon="7.38049">
        <ele>542</ele>
        <time>2013-06-16T14:05:13Z</time>
      </trkpt>
      <trkpt lat="43.73914" lon="7.38029">
        <ele>541</ele>
        <time>2013-06-16T14:05:33Z</time>
      </trkpt>
      <trkpt lat="43.73904" lon="7.38005">
        <ele>544</ele>
        <time>2013-06-16T14:05:48Z</time>
      </trkpt>
      <trkpt lat="43.73898" lon="7.37978">
        <ele>546</ele>
        <time>2013-06-16T14:05:59Z</time>
      </trkpt>
      <trkpt lat="43.73896" lon="7.37952">
        <ele>545</ele>
        <time>2013-06-16T14:06:20Z</time>
      </trkpt>
      <trkpt lat="43.73891" lon="7.37926">
        <ele>546</ele>
        <time>2013-06-16T14:06:38Z</time>
      </trkpt>
      <trkpt lat="43.73876" lon="7.37913">
        <ele>546</ele>
        <time>2013-06-16T14:06:54Z</time>
      </trkpt>
      <trkpt lat="43.73858" lon="7.37908">
        <ele>548</ele>
        <time>2013-06-16T14:07:12Z</time>
      </trkpt>
      <trkpt lat="43.7385" lon="7.37892">
        <ele>558</ele>
        <time>2013-06-16T14:07:46Z</time>
      </trkpt>
      <trkpt lat="43.73834" lon="7.37871">
        <ele>555</ele>
        <time>2013-06-16T14:08:44Z</time>
      </trkpt>
      <trkpt lat="43.73818" lon="7.37856">
        <ele>553</ele>
        <time>2013-06-16T14:08:56Z</time>
      </trkpt>
      <trkpt lat="43.73812" lon="7.3783">
        <ele>557</ele>
        <time>2013-06-16T14:09:12Z</time>
      </trkpt>
      <trkpt lat="43.73806" lon="7.37804">
        <ele>560</ele>
        <time>2013-06-16T14:09:44Z</time>
      </trkpt>
      <trkpt lat="43.738" lon="7.3778">
        <ele>563</ele>
        <time>2013-06-16T14:09:55Z</time>
      </trkpt>
      <trkpt lat="43.73799" lon="7.37754">
        <ele>563</ele>
        <time>2013-06-16T14:10:15Z</time>
      </trkpt>
      <trkpt lat="43.73795" lon="7.37731">
        <ele>566</ele>
        <time>2013-06-16T14:10:38Z</time>
      </trkpt>
      <trkpt lat="43.73806" lon="7.3771">
        <ele>573</ele>
        <time>2013-06-16T14:10:57Z</time>
      </trkpt>
      <trkpt lat="43.73815" lon="7.37687">
        <ele>576</ele>
        <time>2013-06-16T14:11:14Z</time>
      </trkpt>
      <trkpt lat="43.73817" lon="7.37661">
        <ele>582</ele>
        <time>2013-06-16T14:11:30Z</time>
      </trkpt>
      <trkpt lat="43.73807" lon="7.37641">
        <ele>584</ele>
        <time>2013-06-16T14:11:45Z</time>
      </trkpt>
      <trkpt lat="43.73799" lon="7.37612">
        <ele>585</ele>
        <time>2013-06-16T14:12:33Z</time>
      </trkpt>
      <trkpt lat="43.73794" lon="7.37588">
        <ele>586</ele>
        <time>2013-06-16T14:13:05Z</time>
      </trkpt>
      <trkpt lat="43.73794" lon="7.3756">
        <ele>587</ele>
        <time>2013-06-16T14:13:16Z</time>
      </trkpt>
      <trkpt lat="43.73802" lon="7.37537">
        <ele>584</ele>
        <time>2013-06-16T14:13:34Z</time>
      </trkpt>
      <trkpt lat="43.73813" lon="7.37509">
        <ele>587</ele>
        <time>2013-06-16T14:14:19Z</time>
      </trkpt>
      <trkpt lat="43.73814" lon="7.37482">
        <ele>586</ele>
        <time>2013-06-16T14:14:32Z</time>
      </trkpt>
      <trkpt lat="43.7382" lon="7.37458">
        <ele>586</ele>
        <time>2013-06-16T14:14:48Z</time>
      </trkpt>
      <trkpt lat="43.73823" lon="7.37433">
        <ele>588</ele>
        <time>2013-06-16T14:14:59Z</time>
      </trkpt>
      <trkpt lat="43.7382" lon="7.37406">
        <ele>589</ele>
        <time>2013-06-16T14:15:10Z</time>
      </trkpt>
      <trkpt lat="43.73822" lon="7.37384">
        <ele>594</ele>
        <time>2013-06-16T14:15:36Z</time>
      </trkpt>
      <trkpt lat="43.73823" lon="7.37357">
        <ele>596</ele>
        <time>2013-06-16T14:15:48Z</time>
      </trkpt>
      <trkpt lat="43.73811" lon="7.37377">
        <ele>597</ele>
        <time>2013-06-16T14:16:03Z</time>
      </trkpt>
      <trkpt lat="43.73805" lon="7.37399">
        <ele>600</ele>
        <time>2013-06-16T14:16:20Z</time>
      </trkpt>
      <trkpt lat="43.738" lon="7.37425">
        <ele>603</ele>
        <time>2013-06-16T14:16:39Z</time>
      </trkpt>
      <trkpt lat="43.73789" lon="7.37447">
        <ele>600</ele>
        <time>2013-06-16T14:16:57Z</time>
      </trkpt>
      <trkpt lat="43.73782" lon="7.37473">
        <ele>602</ele>
        <time>2013-06-16T14:17:16Z</time>
      </trkpt>
      <trkpt lat="43.73772" lon="7.37494">
        <ele>605</ele>
        <time>2013-06-16T14:17:33Z</time>
      </trkpt>
      <trkpt lat="43.73759" lon="7.37514">
        <ele>606</ele>
        <time>2013-06-16T14:17:50Z</time>
      </trkpt>
      <trkpt lat="43.73752" lon="7.37497">
        <ele>613</ele>
        <time>2013-06-16T14:18:12Z</time>
      </trkpt>
      <trkpt lat="43.73764" lon="7.37475">
        <ele>612</ele>
        <time>2013-06-16T14:18:25Z</time>
      </trkpt>
      <trkpt lat="43.73779" lon="7.37458">
        <ele>614</ele>
        <time>2013-06-16T14:18:37Z</time>
      </trkpt>
      <trkpt lat="43.73785" lon="7.37435">
        <ele>614</ele>
        <time>2013-06-16T14:18:51Z</time>
      </trkpt>
      <trkpt lat="43.73783" lon="7.37409">
        <ele>616</ele>
        <time>2013-06-16T14:19:03Z</time>
      </trkpt>
      <trkpt lat="43.73779" lon="7.37383">
        <ele>611</ele>
        <time>2013-06-16T14:19:23Z</time>
      </trkpt>
      <trkpt lat="43.73785" lon="7.37358">
        <ele>616</ele>
        <time>2013-06-16T14:19:50Z</time>
      </trkpt>
      <trkpt lat="43.73784" lon="7.37322">
        <ele>616</ele>
        <time>2013-06-16T14:20:09Z</time>
      </trkpt>
      <trkpt lat="43.73779" lon="7.37298">
        <ele>617</ele>
        <time>2013-06-16T14:20:23Z</time>
      </trkpt>
      <trkpt lat="43.73782" lon="7.37272">
        <ele>623</ele>
        <time>2013-06-16T14:20:38Z</time>
      </trkpt>
      <trkpt lat="43.73781" lon="7.37247">
        <ele>624</ele>
        <time>2013-06-16T14:20:49Z</time>
      </trkpt>
      <trkpt lat="43.7378" lon="7.37222">
        <ele>626</ele>
        <time>2013-06-16T14:21:04Z</time>
      </trkpt>
      <trkpt lat="43.73782" lon="7.37196">
        <ele>623</ele>
        <time>2013-06-16T14:21:27Z</time>
      </trkpt>
      <trkpt lat="43.73785" lon="7.37169">
        <ele>624</ele>
        <time>2013-06-16T14:21:40Z</time>
      </trkpt>
      <trkpt lat="43.73776" lon="7.37145">
        <ele>623</ele>
        <time>2013-06-16T14:22:01Z</time>
      </trkpt>
      <trkpt lat="43.73773" lon="7.37122">
        <ele>622</ele>
        <time>2013-06-16T14:22:14Z</time>
      </trkpt>
      <trkpt lat="43.73778" lon="7.37097">
        <ele>629</ele>
        <time>2013-06-16T14:22:28Z</time>
      </trkpt>
      <trkpt lat="43.73787" lon="7.37074">
        <ele>632</ele>
        <time>2013-06-16T14:22:43Z</time>
      </trkpt>
      <trkpt lat="43.73797" lon="7.37052">
        <ele>633</ele>
        <time>2013-06-16T14:23:07Z</time>
      </trkpt>
      <trkpt lat="43.73814" lon="7.37037">
        <ele>636</ele>
        <time>2013-06-16T14:23:21Z</time>
      </trkpt>
      <trkpt lat="43.73842" lon="7.37041">
        <ele>640</ele>
        <time>2013-06-16T14:23:36Z</time>
      </trkpt>
      <trkpt lat="43.73859" lon="7.37027">
        <ele>639</ele>
        <time>2013-06-16T14:23:47Z</time>
      </trkpt>
      <trkpt lat="43.73876" lon="7.37016">
        <ele>639</ele>
        <time>2013-06-16T14:24:02Z</time>
      </trkpt>
      <trkpt lat="43.73893" lon="7.37004">
        <ele>639</ele>
        <time>2013-06-16T14:24:17Z</time>
      </trkpt>
      <trkpt lat="43.73912" lon="7.36992">
        <ele>640</ele>
        <time>2013-06-16T14:24:28Z</time>
      </trkpt>
      <trkpt lat="43.73929" lon="7.3698">
        <ele>640</ele>
        <time>2013-06-16T14:24:49Z</time>
      </trkpt>
      <trkpt lat="43.73941" lon="7.36959">
        <ele>642</ele>
        <time>2013-06-16T14:25:02Z</time>
      </trkpt>
      <trkpt lat="43.73969" lon="7.36955">
        <ele>642</ele>
        <time>2013-06-16T14:25:16Z</time>
      </trkpt>
      <trkpt lat="43.73968" lon="7.36929">
        <ele>645</ele>
        <time>2013-06-16T14:25:29Z</time>
      </trkpt>
      <trkpt lat="43.73982" lon="7.36917">
        <ele>642</ele>
        <time>2013-06-16T14:25:48Z</time>
      </trkpt>
      <trkpt lat="43.73999" lon="7.36905">
        <ele>639</ele>
        <time>2013-06-16T14:26:00Z</time>
      </trkpt>
      <trkpt lat="43.74015" lon="7.3689">
        <ele>640</ele>
        <time>2013-06-16T14:26:15Z</time>
      </trkpt>
      <trkpt lat="43.74017" lon="7.36864">
        <ele>640</ele>
        <time>2013-06-16T14:26:33Z</time>
      </trkpt>
      <trkpt lat="43.74028" lon="7.36841">
        <ele>642</ele>
        <time>2013-06-16T14:26:48Z</time>
      </trkpt>
      <trkpt lat="43.74036" lon="7.36818">
        <ele>647</ele>
        <time>2013-06-16T14:27:00Z</time>
      </trkpt>
      <trkpt lat="43.74037" lon="7.36792">
        <ele>644</ele>
        <time>2013-06-16T14:27:15Z</time>
      </trkpt>
      <trkpt lat="43.74047" lon="7.36772">
        <ele>646</ele>
        <time>2013-06-16T14:27:36Z</time>
      </trkpt>
      <trkpt lat="43.74048" lon="7.36745">
        <ele>644</ele>
        <time>2013-06-16T14:27:53Z</time>
      </trkpt>
      <trkpt lat="43.74042" lon="7.3672">
        <ele>646</ele>
        <time>2013-06-16T14:28:06Z</time>
      </trkpt>
      <trkpt lat="43.74036" lon="7.36694">
        <ele>646</ele>
        <time>2013-06-16T14:28:25Z</time>
      </trkpt>
      <trkpt lat="43.7403" lon="7.36667">
        <ele>647</ele>
        <time>2013-06-16T14:28:38Z</time>
      </trkpt>
      <trkpt lat="43.74033" lon="7.36625">
        <ele>648</ele>
        <time>2013-06-16T14:28:49Z</time>
      </trkpt>
      <trkpt lat="43.74044" lon="7.36604">
        <ele>654</ele>
        <time>2013-06-16T14:29:11Z</time>
      </trkpt>
      <trkpt lat="43.74055" lon="7.36583">
        <ele>656</ele>
        <time>2013-06-16T14:29:26Z</time>
      </trkpt>
      <trkpt lat="43.74061" lon="7.36559">
        <ele>654</ele>
        <time>2013-06-16T14:29:45Z</time>
      </trkpt>
      <trkpt lat="43.74063" lon="7.36533">
        <ele>655</ele>
        <time>2013-06-16T14:30:01Z</time>
      </trkpt>
      <trkpt lat="43.74071" lon="7.3651">
        <ele>657</ele>
        <time>2013-06-16T14:30:15Z</time>
      </trkpt>
      <trkpt lat="43.74071" lon="7.36484">
        <ele>658</ele>
        <time>2013-06-16T14:30:31Z</time>
      </trkpt>
      <trkpt lat="43.74081" lon="7.36459">
        <ele>661</ele>
        <time>2013-06-16T14:30:50Z</time>
      </trkpt>
      <trkpt lat="43.7408" lon="7.36433">
        <ele>670</ele>
        <time>2013-06-16T14:31:08Z</time>
      </trkpt>
      <trkpt lat="43.74086" lon="7.36409">
        <ele>673</ele>
        <time>2013-06-16T14:31:21Z</time>
      </trkpt>
      <trkpt lat="43.74099" lon="7.36392">
        <ele>670</ele>
        <time>2013-06-16T14:31:37Z</time>
      </trkpt>
      <trkpt lat="43.74101" lon="7.36367">
        <ele>670</ele>
        <time>2013-06-16T14:31:51Z</time>
      </trkpt>
      <trkpt lat="43.741" lon="7.36341">
        <ele>674</ele>
        <time>2013-06-16T14:32:10Z</time>
      </trkpt>
      <trkpt lat="43.74086" lon="7.36322">
        <ele>672</ele>
        <time>2013-06-16T14:32:22Z</time>
      </trkpt>
      <trkpt lat="43.7407" lon="7.36314">
        <ele>672</ele>
        <time>2013-06-16T14:32:33Z</time>
      </trkpt>
      <trkpt lat="43.74049" lon="7.36314">
        <ele>685</ele>
        <time>2013-06-16T14:32:53Z</time>
      </trkpt>
      <trkpt lat="43.7403" lon="7.36305">
        <ele>694</ele>
        <time>2013-06-16T14:33:40Z</time>
      </trkpt>
      <trkpt lat="43.74012" lon="7.36304">
        <ele>693</ele>
        <time>2013-06-16T14:34:00Z</time>
      </trkpt>
      <trkpt lat="43.73994" lon="7.36312">
        <ele>691</ele>
        <time>2013-06-16T14:34:14Z</time>
      </trkpt>
      <trkpt lat="43.73977" lon="7.3632">
        <ele>691</ele>
        <time>2013-06-16T14:34:32Z</time>
      </trkpt>
      <trkpt lat="43.73979" lon="7.36346">
        <ele>692</ele>
        <time>2013-06-16T14:34:47Z</time>
      </trkpt>
      <trkpt lat="43.73989" lon="7.36367">
        <ele>692</ele>
        <time>2013-06-16T14:35:01Z</time>
      </trkpt>
      <trkpt lat="43.73992" lon="7.36393">
        <ele>694</ele>
        <time>2013-06-16T14:35:22Z</time>
      </trkpt>
      <trkpt lat="43.73994" lon="7.36421">
        <ele>694</ele>
        <time>2013-06-16T14:35:35Z</time>
      </trkpt>
      <trkpt lat="43.73983" lon="7.3644">
        <ele>693</ele>
        <time>2013-06-16T14:36:01Z</time>
      </trkpt>
      <trkpt lat="43.73971" lon="7.36459">
        <ele>697</ele>
        <time>2013-06-16T14:36:14Z</time>
      </trkpt>
      <trkpt lat="43.73954" lon="7.3647">
        <ele>697</ele>
        <time>2013-06-16T14:36:26Z</time>
      </trkpt>
      <trkpt lat="43.73943" lon="7.36491">
        <ele>699</ele>
        <time>2013-06-16T14:36:41Z</time>
      </trkpt>
      <trkpt lat="43.73928" lon="7.36509">
        <ele>700</ele>
        <time>2013-06-16T14:36:54Z</time>
      </trkpt>
      <trkpt lat="43.73916" lon="7.36529">
        <ele>696</ele>
        <time>2013-06-16T14:37:11Z</time>
      </trkpt>
      <trkpt lat="43.73894" lon="7.36533">
        <ele>698</ele>
        <time>2013-06-16T14:38:34Z</time>
      </trkpt>
      <trkpt lat="43.7388" lon="7.36524">
        <ele>698</ele>
        <time>2013-06-16T14:38:44Z</time>
      </trkpt>
      <trkpt lat="43.73866" lon="7.36508">
        <ele>700</ele>
        <time>2013-06-16T14:38:57Z</time>
      </trkpt>
      <trkpt lat="43.73873" lon="7.36478">
        <ele>698</ele>
        <time>2013-06-16T14:39:10Z</time>
      </trkpt>
      <trkpt lat="43.73892" lon="7.36467">
        <ele>693</ele>
        <time>2013-06-16T14:39:20Z</time>
      </trkpt>
      <trkpt lat="43.73908" lon="7.36454">
        <ele>690</ele>
        <time>2013-06-16T14:39:42Z</time>
      </trkpt>
      <trkpt lat="43.73908" lon="7.3643">
        <ele>682</ele>
        <time>2013-06-16T14:39:59Z</time>
      </trkpt>
      <trkpt lat="43.73908" lon="7.3643">
        <ele>690</ele>
        <time>2013-06-16T14:41:47Z</time>
      </trkpt>
    </trkseg>
  </trk>
</gpx>